createdAt,value
2018-07-22T00:00:52.484Z,61.71
2018-07-22T00:03:19.133Z,61.83
2018-07-22T00:05:45.817Z,61.68
2018-07-22T00:08:13.864Z,61.73
2018-07-22T00:10:40.505Z,62.15
2018-07-22T00:13:07.148Z,62.81
2018-07-22T00:15:33.777Z,62.92
2018-07-22T00:18:00.409Z,62.34
2018-07-22T00:20:27.053Z,62.75
2018-07-22T00:22:53.699Z,62.93
2018-07-22T00:25:20.357Z,62.18
2018-07-22T00:27:48.296Z,62.49
2018-07-22T00:30:14.937Z,62.47
2018-07-22T00:32:42.505Z,61.91
2018-07-22T00:35:10.009Z,61.58
2018-07-22T00:37:37.075Z,61.63
2018-07-22T00:40:04.308Z,62.22
2018-07-22T00:42:30.957Z,62.14
2018-07-22T00:44:57.597Z,62.35
2018-07-22T00:47:24.250Z,63.13
2018-07-22T00:49:50.909Z,63.14
2018-07-22T00:52:18.316Z,62.79
2018-07-22T00:54:44.997Z,63.44
2018-07-22T00:57:12.725Z,63.51
2018-07-22T00:59:39.433Z,62.79
2018-07-22T01:02:06.096Z,63.55
2018-07-22T01:04:32.747Z,63.42
2018-07-22T01:06:59.413Z,62.49
2018-07-22T01:09:26.069Z,62.46
2018-07-22T01:11:52.761Z,63.06
2018-07-22T01:14:19.404Z,62.36
2018-07-22T01:16:47.993Z,63.07
2018-07-22T01:19:14.638Z,63.08
2018-07-22T01:21:41.301Z,61.21
2018-07-22T01:24:08.760Z,62.88
2018-07-22T01:26:35.433Z,62.42
2018-07-22T01:29:02.072Z,62.80
2018-07-22T01:31:28.747Z,63.05
2018-07-22T01:33:55.432Z,63.09
2018-07-22T01:36:22.090Z,63.24
2018-07-22T01:38:48.741Z,62.76
2018-07-22T01:41:15.400Z,61.86
2018-07-22T01:43:42.670Z,61.74
2018-07-22T01:46:09.349Z,62.79
2018-07-22T01:48:36.002Z,62.92
2018-07-22T01:51:02.671Z,62.62
2018-07-22T01:53:29.325Z,61.87
2018-07-22T01:55:55.993Z,62.38
2018-07-22T01:58:22.637Z,62.58
2018-07-22T02:00:49.329Z,62.40
2018-07-22T02:03:15.969Z,62.84
2018-07-22T02:05:44.001Z,62.83
2018-07-22T02:08:10.636Z,63.11
2018-07-22T02:10:37.256Z,62.45
2018-07-22T02:13:03.913Z,62.52
2018-07-22T02:15:30.559Z,62.17
2018-07-22T02:17:57.210Z,62.46
2018-07-22T02:20:23.989Z,62.64
2018-07-22T02:22:50.636Z,63.01
2018-07-22T02:25:17.797Z,62.96
2018-07-22T02:27:44.464Z,63.76
2018-07-22T02:30:12.143Z,63.42
2018-07-22T02:32:38.957Z,63.37
2018-07-22T02:35:05.734Z,62.55
2018-07-22T02:37:32.396Z,63.32
2018-07-22T02:40:00.058Z,62.86
2018-07-22T02:42:26.728Z,62.38
2018-07-22T02:44:53.380Z,62.77
2018-07-22T02:47:20.024Z,62.85
2018-07-22T02:49:46.672Z,63.55
2018-07-22T02:52:14.299Z,63.85
2018-07-22T02:54:42.004Z,63.65
2018-07-22T02:57:09.348Z,63.30
2018-07-22T02:59:35.997Z,63.81
2018-07-22T03:02:02.661Z,63.60
2018-07-22T03:04:29.352Z,62.36
2018-07-22T03:06:56.019Z,62.90
2018-07-22T03:09:23.619Z,61.67
2018-07-22T03:11:50.293Z,61.21
2018-07-22T03:14:17.972Z,62.20
2018-07-22T03:16:44.645Z,63.11
2018-07-22T03:19:11.373Z,63.26
2018-07-22T03:21:38.013Z,63.31
2018-07-22T03:24:04.649Z,63.06
2018-07-22T03:26:31.298Z,62.85
2018-07-22T03:28:57.935Z,63.75
2018-07-22T03:31:24.692Z,63.32
2018-07-22T03:33:51.354Z,63.27
2018-07-22T03:36:19.956Z,63.91
2018-07-22T03:38:46.653Z,64.04
2018-07-22T03:41:13.291Z,63.21
2018-07-22T03:43:39.929Z,63.17
2018-07-22T03:46:06.696Z,61.44
2018-07-22T03:48:33.345Z,61.34
2018-07-22T03:50:59.975Z,61.96
2018-07-22T03:53:26.668Z,62.08
2018-07-22T03:55:53.308Z,62.67
2018-07-22T03:58:19.944Z,62.79
2018-07-22T04:00:46.593Z,62.32
2018-07-22T04:03:13.240Z,61.93
2018-07-22T04:05:39.876Z,62.34
2018-07-22T04:08:06.536Z,61.97
2018-07-22T04:10:33.169Z,62.05
2018-07-22T04:12:59.827Z,62.13
2018-07-22T04:15:26.465Z,61.73
2018-07-22T04:17:53.123Z,62.61
2018-07-22T04:20:19.803Z,62.93
2018-07-22T04:22:46.460Z,62.82
2018-07-22T04:25:14.033Z,62.77
2018-07-22T04:27:40.698Z,62.33
2018-07-22T04:30:07.342Z,62.03
2018-07-22T04:32:34.009Z,62.95
2018-07-22T04:35:00.669Z,62.18
2018-07-22T04:37:27.322Z,62.57
2018-07-22T04:39:53.961Z,62.66
2018-07-22T04:42:20.600Z,61.91
2018-07-22T04:44:47.732Z,62.62
2018-07-22T04:47:14.396Z,61.61
2018-07-22T04:49:42.108Z,62.11
2018-07-22T04:52:08.745Z,61.42
2018-07-22T04:54:35.432Z,62.77
2018-07-22T04:57:02.077Z,61.62
2018-07-22T04:59:28.755Z,61.57
2018-07-22T05:01:55.388Z,61.87
2018-07-22T05:04:22.025Z,61.94
2018-07-22T05:06:48.677Z,61.64
2018-07-22T05:09:15.312Z,62.25
2018-07-22T05:11:42.688Z,61.76
2018-07-22T05:14:09.367Z,62.11
2018-07-22T05:16:36.461Z,62.80
2018-07-22T05:19:03.100Z,62.07
2018-07-22T05:21:29.747Z,62.70
2018-07-22T05:23:56.412Z,62.12
2018-07-22T05:26:23.054Z,62.15
2018-07-22T05:28:49.704Z,62.43
2018-07-22T05:31:16.349Z,62.75
2018-07-22T05:33:42.977Z,63.08
2018-07-22T05:36:09.643Z,62.86
2018-07-22T05:38:36.296Z,62.41
2018-07-22T05:41:02.938Z,62.21
2018-07-22T05:43:29.580Z,62.56
2018-07-22T05:45:56.252Z,62.95
2018-07-22T05:48:22.908Z,62.27
2018-07-22T05:50:49.541Z,62.81
2018-07-22T05:53:16.181Z,61.93
2018-07-22T05:55:42.846Z,62.22
2018-07-22T05:58:09.487Z,62.94
2018-07-22T06:00:36.149Z,62.20
2018-07-22T06:03:03.316Z,62.75
2018-07-22T06:05:29.990Z,62.11
2018-07-22T06:07:56.633Z,62.17
2018-07-22T06:10:23.321Z,62.84
2018-07-22T06:12:49.993Z,62.92
2018-07-22T06:15:16.684Z,62.13
2018-07-22T06:17:43.348Z,62.22
2018-07-22T06:20:10.010Z,62.84
2018-07-22T06:22:36.735Z,62.80
2018-07-22T06:25:03.921Z,62.88
2018-07-22T06:27:30.565Z,62.10
2018-07-22T06:29:57.233Z,62.14
2018-07-22T06:32:23.913Z,62.18
2018-07-22T06:34:50.568Z,63.04
2018-07-22T06:37:18.290Z,62.41
2018-07-22T06:39:44.965Z,62.96
2018-07-22T06:42:13.069Z,62.34
2018-07-22T06:44:39.727Z,62.89
2018-07-22T06:47:06.372Z,62.84
2018-07-22T06:49:33.030Z,61.97
2018-07-22T06:51:59.722Z,62.40
2018-07-22T06:54:26.452Z,62.84
2018-07-22T06:56:53.089Z,63.05
2018-07-22T06:59:19.771Z,62.12
2018-07-22T07:01:46.412Z,62.28
2018-07-22T07:04:13.068Z,62.81
2018-07-22T07:06:39.779Z,62.24
2018-07-22T07:09:07.440Z,62.24
2018-07-22T07:11:34.089Z,62.91
2018-07-22T07:14:00.755Z,62.37
2018-07-22T07:16:27.393Z,63.05
2018-07-22T07:18:54.069Z,62.30
2018-07-22T07:21:20.718Z,62.96
2018-07-22T07:23:48.697Z,62.37
2018-07-22T07:26:15.360Z,62.55
2018-07-22T07:28:42.999Z,63.20
2018-07-22T07:31:09.674Z,63.05
2018-07-22T07:33:36.351Z,62.94
2018-07-22T07:36:03.018Z,62.60
2018-07-22T07:38:29.668Z,63.07
2018-07-22T07:40:56.329Z,62.97
2018-07-22T07:43:22.964Z,62.96
2018-07-22T07:45:49.661Z,63.00
2018-07-22T07:48:16.308Z,62.83
2018-07-22T07:50:43.017Z,62.07
2018-07-22T07:53:09.663Z,62.96
2018-07-22T07:55:36.342Z,62.43
2018-07-22T07:58:02.981Z,62.40
2018-07-22T08:00:29.644Z,62.77
2018-07-22T08:02:56.280Z,63.05
2018-07-22T08:05:22.946Z,62.37
2018-07-22T08:07:49.592Z,62.38
2018-07-22T08:10:16.253Z,62.79
2018-07-22T08:12:42.944Z,62.93
2018-07-22T08:15:09.596Z,62.81
2018-07-22T08:17:36.242Z,63.08
2018-07-22T08:20:03.917Z,62.34
2018-07-22T08:22:30.550Z,63.10
2018-07-22T08:24:57.280Z,62.29
2018-07-22T08:27:23.925Z,62.18
2018-07-22T08:29:50.572Z,62.65
2018-07-22T08:32:17.761Z,62.70
2018-07-22T08:34:44.412Z,62.82
2018-07-22T08:37:11.061Z,62.26
2018-07-22T08:39:37.704Z,62.77
2018-07-22T08:42:04.360Z,63.31
2018-07-22T08:44:31.020Z,62.85
2018-07-22T08:46:57.662Z,62.55
2018-07-22T08:49:24.352Z,63.07
2018-07-22T08:51:50.989Z,62.93
2018-07-22T08:54:18.353Z,62.96
2018-07-22T08:56:44.999Z,62.71
2018-07-22T08:59:13.437Z,62.29
2018-07-22T09:01:40.089Z,63.03
2018-07-22T09:04:06.752Z,62.31
2018-07-22T09:06:33.445Z,62.42
2018-07-22T09:09:00.103Z,63.19
2018-07-22T09:11:26.802Z,63.11
2018-07-22T09:13:54.101Z,62.83
2018-07-22T09:16:21.177Z,62.54
2018-07-22T09:18:48.946Z,62.96
2018-07-22T09:21:15.602Z,62.76
2018-07-22T09:23:42.968Z,63.02
2018-07-22T09:26:09.711Z,62.33
2018-07-22T09:28:36.352Z,62.08
2018-07-22T09:31:03.509Z,63.07
2018-07-22T09:33:30.152Z,62.26
2018-07-22T09:35:56.811Z,63.17
2018-07-22T09:38:23.564Z,62.24
2018-07-22T09:40:50.225Z,63.07
2018-07-22T09:43:17.518Z,63.14
2018-07-22T09:45:44.200Z,62.53
2018-07-22T09:48:10.868Z,62.59
2018-07-22T09:50:37.540Z,62.45
2018-07-22T09:53:04.241Z,62.72
2018-07-22T09:55:30.935Z,63.29
2018-07-22T09:57:57.592Z,62.41
2018-07-22T10:00:29.992Z,63.11
2018-07-22T10:02:56.653Z,63.17
2018-07-22T10:05:23.300Z,63.05
2018-07-22T10:07:49.954Z,62.42
2018-07-22T10:10:16.600Z,62.51
2018-07-22T10:12:43.240Z,62.93
2018-07-22T10:15:09.905Z,62.81
2018-07-22T10:17:36.564Z,62.56
2018-07-22T10:20:03.296Z,63.26
2018-07-22T10:22:29.957Z,62.61
2018-07-22T10:24:56.604Z,63.23
2018-07-22T10:27:23.248Z,62.52
2018-07-22T10:29:49.891Z,63.09
2018-07-22T10:32:16.540Z,63.30
2018-07-22T10:34:43.176Z,63.12
2018-07-22T10:37:09.824Z,62.55
2018-07-22T10:39:36.473Z,62.43
2018-07-22T10:42:03.121Z,63.37
2018-07-22T10:44:29.772Z,63.37
2018-07-22T10:46:56.429Z,62.53
2018-07-22T10:49:23.065Z,63.24
2018-07-22T10:51:49.726Z,62.51
2018-07-22T10:54:16.377Z,62.50
2018-07-22T10:56:43.063Z,62.40
2018-07-22T10:59:09.722Z,62.41
2018-07-22T11:01:36.360Z,62.97
2018-07-22T11:04:03.017Z,63.11
2018-07-22T11:06:29.656Z,62.75
2018-07-22T11:08:56.291Z,62.91
2018-07-22T11:11:22.927Z,62.34
2018-07-22T11:13:49.560Z,62.96
2018-07-22T11:16:16.205Z,63.16
2018-07-22T11:18:43.652Z,62.64
2018-07-22T11:21:10.322Z,63.20
2018-07-22T11:23:36.972Z,63.08
2018-07-22T11:26:03.621Z,62.76
2018-07-22T11:28:30.273Z,62.21
2018-07-22T11:30:56.924Z,62.97
2018-07-22T11:33:23.728Z,62.97
2018-07-22T11:35:50.369Z,62.30
2018-07-22T11:38:18.134Z,62.77
2018-07-22T11:40:44.773Z,63.05
2018-07-22T11:43:12.369Z,62.43
2018-07-22T11:45:39.012Z,63.22
2018-07-22T11:48:05.673Z,63.31
2018-07-22T11:50:32.378Z,62.56
2018-07-22T11:52:59.028Z,62.47
2018-07-22T11:55:25.676Z,63.09
2018-07-22T11:57:52.329Z,62.33
2018-07-22T12:00:18.998Z,63.16
2018-07-22T12:02:45.674Z,63.03
2018-07-22T12:05:13.776Z,63.10
2018-07-22T12:07:40.536Z,63.16
2018-07-22T12:10:07.191Z,63.19
2018-07-22T12:12:34.883Z,62.66
2018-07-22T12:15:01.523Z,62.52
2018-07-22T12:17:28.164Z,62.43
2018-07-22T12:19:55.644Z,63.15
2018-07-22T12:22:22.273Z,63.23
2018-07-22T12:24:48.916Z,63.28
2018-07-22T12:27:15.564Z,63.26
2018-07-22T12:29:43.292Z,62.89
2018-07-22T12:32:09.949Z,63.21
2018-07-22T12:34:36.625Z,63.14
2018-07-22T12:37:03.265Z,62.45
2018-07-22T12:39:29.931Z,63.11
2018-07-22T12:41:56.581Z,63.06
2018-07-22T12:44:23.263Z,63.03
2018-07-22T12:46:49.958Z,63.21
2018-07-22T12:49:16.621Z,63.33
2018-07-22T12:51:44.156Z,63.21
2018-07-22T12:54:10.812Z,63.01
2018-07-22T12:56:37.468Z,62.54
2018-07-22T12:59:05.160Z,63.18
2018-07-22T13:01:31.805Z,63.24
2018-07-22T13:03:58.461Z,62.54
2018-07-22T13:06:25.447Z,62.97
2018-07-22T13:08:52.104Z,62.49
2018-07-22T13:11:18.757Z,61.76
2018-07-22T13:13:45.421Z,61.23
2018-07-22T13:16:13.189Z,60.89
2018-07-22T13:18:39.849Z,60.28
2018-07-22T13:21:06.530Z,60.37
2018-07-22T13:23:33.202Z,60.50
2018-07-22T13:25:59.852Z,60.70
2018-07-22T13:28:26.516Z,60.83
2018-07-22T13:30:53.161Z,61.08
2018-07-22T13:33:19.801Z,59.73
2018-07-22T13:35:46.454Z,60.97
2018-07-22T13:38:13.217Z,60.47
2018-07-22T13:40:40.638Z,61.05
2018-07-22T13:43:07.292Z,60.96
2018-07-22T13:45:34.016Z,60.87
2018-07-22T13:48:00.604Z,60.43
2018-07-22T13:50:27.237Z,61.24
2018-07-22T13:52:53.881Z,60.99
2018-07-22T13:55:20.550Z,60.86
2018-07-22T13:57:48.393Z,60.63
2018-07-22T14:00:15.081Z,60.06
2018-07-22T14:02:41.784Z,60.51
2018-07-22T14:05:08.460Z,60.33
2018-07-22T14:07:35.114Z,61.11
2018-07-22T14:10:01.793Z,60.76
2018-07-22T14:12:29.302Z,61.53
2018-07-22T14:14:55.954Z,60.83
2018-07-22T14:17:22.605Z,60.15
2018-07-22T14:19:49.264Z,61.14
2018-07-22T14:22:15.909Z,60.81
2018-07-22T14:24:43.222Z,60.64
2018-07-22T14:27:09.873Z,60.76
2018-07-22T14:29:36.541Z,60.69
2018-07-22T14:32:03.178Z,61.38
2018-07-22T14:34:29.841Z,60.84
2018-07-22T14:36:56.480Z,61.33
2018-07-22T14:39:23.132Z,61.40
2018-07-22T14:41:49.780Z,61.01
2018-07-22T14:44:16.442Z,61.63
2018-07-22T14:46:43.986Z,61.51
2018-07-22T14:49:10.642Z,61.34
2018-07-22T14:51:37.292Z,61.86
2018-07-22T14:54:03.949Z,61.14
2018-07-22T14:56:30.621Z,61.58
2018-07-22T14:58:57.391Z,61.74
2018-07-22T15:01:24.041Z,60.85
2018-07-22T15:03:50.688Z,61.40
2018-07-22T15:06:18.853Z,61.97
2018-07-22T15:08:45.796Z,61.13
2018-07-22T15:11:13.705Z,61.58
2018-07-22T15:13:41.354Z,61.87
2018-07-22T15:16:09.148Z,61.84
2018-07-22T15:18:35.816Z,61.21
2018-07-22T15:21:02.515Z,61.90
2018-07-22T15:23:29.196Z,61.61
2018-07-22T15:25:55.845Z,61.65
2018-07-22T15:28:22.481Z,61.08
2018-07-22T15:30:49.128Z,61.24
2018-07-22T15:33:15.772Z,61.90
2018-07-22T15:35:43.237Z,61.48
2018-07-22T15:38:10.068Z,61.39
2018-07-22T15:40:36.716Z,62.16
2018-07-22T15:43:03.374Z,61.51
2018-07-22T15:45:30.041Z,61.33
2018-07-22T15:47:56.685Z,62.25
2018-07-22T15:50:23.336Z,61.50
2018-07-22T15:52:49.994Z,61.40
2018-07-22T15:55:16.695Z,61.40
2018-07-22T15:57:43.368Z,62.30
2018-07-22T16:00:10.032Z,61.41
2018-07-22T16:02:36.677Z,62.32
2018-07-22T16:05:03.733Z,61.86
2018-07-22T16:07:30.366Z,62.45
2018-07-22T16:09:57.003Z,61.60
2018-07-22T16:12:23.639Z,62.40
2018-07-22T16:14:50.289Z,62.36
2018-07-22T16:17:18.382Z,62.36
2018-07-22T16:19:45.041Z,62.11
2018-07-22T16:22:12.768Z,62.09
2018-07-22T16:24:39.412Z,62.03
2018-07-22T16:27:06.069Z,62.60
2018-07-22T16:29:32.721Z,62.61
2018-07-22T16:31:59.368Z,61.71
2018-07-22T16:34:26.016Z,62.53
2018-07-22T16:36:52.700Z,61.75
2018-07-22T16:39:19.345Z,62.07
2018-07-22T16:41:45.991Z,61.94
2018-07-22T16:44:13.255Z,62.44
2018-07-22T16:46:39.897Z,61.68
2018-07-22T16:49:06.531Z,61.64
2018-07-22T16:51:33.260Z,61.63
2018-07-22T16:53:59.908Z,62.42
2018-07-22T16:56:26.593Z,61.71
2018-07-22T16:58:54.165Z,61.77
2018-07-22T17:01:20.888Z,61.95
2018-07-22T17:03:48.632Z,62.43
2018-07-22T17:06:15.302Z,62.19
2018-07-22T17:08:41.985Z,61.76
2018-07-22T17:11:08.648Z,62.12
2018-07-22T17:13:35.288Z,62.15
2018-07-22T17:16:01.962Z,61.73
2018-07-22T17:18:28.653Z,62.60
2018-07-22T17:20:55.320Z,62.40
2018-07-22T17:23:21.965Z,62.59
2018-07-22T17:25:48.609Z,61.83
2018-07-22T17:28:15.284Z,62.56
2018-07-22T17:30:42.005Z,62.73
2018-07-22T17:33:08.731Z,62.26
2018-07-22T17:35:35.395Z,61.70
2018-07-22T17:38:02.064Z,61.75
2018-07-22T17:40:28.719Z,62.52
2018-07-22T17:42:55.389Z,61.96
2018-07-22T17:45:22.028Z,62.51
2018-07-22T17:47:48.697Z,61.83
2018-07-22T17:50:15.337Z,61.79
2018-07-22T17:52:42.865Z,62.32
2018-07-22T17:55:09.511Z,62.09
2018-07-22T17:57:36.216Z,61.81
2018-07-22T18:00:02.954Z,61.85
2018-07-22T18:02:29.620Z,62.53
2018-07-22T18:04:56.283Z,62.82
2018-07-22T18:07:22.968Z,62.87
2018-07-22T18:09:50.577Z,62.07
2018-07-22T18:12:17.793Z,62.90
2018-07-22T18:14:44.489Z,61.84
2018-07-22T18:17:11.205Z,62.84
2018-07-22T18:19:37.868Z,62.10
2018-07-22T18:22:04.630Z,62.39
2018-07-22T18:24:31.360Z,62.83
2018-07-22T18:26:58.355Z,62.49
2018-07-22T18:29:26.071Z,62.99
2018-07-22T18:31:53.052Z,62.49
2018-07-22T18:34:20.167Z,62.44
2018-07-22T18:36:48.482Z,63.16
2018-07-22T18:39:15.506Z,62.64
2018-07-22T18:41:43.631Z,63.46
2018-07-22T18:44:10.680Z,63.23
2018-07-22T18:46:37.698Z,62.76
2018-07-22T18:49:04.815Z,62.58
2018-07-22T18:51:32.053Z,62.28
2018-07-22T18:54:00.613Z,62.25
2018-07-22T18:56:28.426Z,63.34
2018-07-22T18:58:55.548Z,62.85
2018-07-22T19:01:22.684Z,63.32
2018-07-22T19:03:49.762Z,62.63
2018-07-22T19:06:17.878Z,62.65
2018-07-22T19:08:44.882Z,62.64
2018-07-22T19:11:13.304Z,62.93
2018-07-22T19:13:40.403Z,63.21
2018-07-22T19:16:07.475Z,63.58
2018-07-22T19:18:34.525Z,63.36
2018-07-22T19:21:01.562Z,63.49
2018-07-22T19:23:29.185Z,62.86
2018-07-22T19:25:56.203Z,63.08
2018-07-22T19:28:23.227Z,63.49
2018-07-22T19:30:50.266Z,63.09
2018-07-22T19:33:18.514Z,62.82
2018-07-22T19:35:45.561Z,63.09
2018-07-22T19:38:13.827Z,63.66
2018-07-22T19:40:41.143Z,63.77
2018-07-22T19:43:08.164Z,63.69
2018-07-22T19:45:35.313Z,63.42
2018-07-22T19:48:04.647Z,63.07
2018-07-22T19:50:31.776Z,62.84
2018-07-22T19:52:59.526Z,63.08
2018-07-22T19:55:26.564Z,62.42
2018-07-22T19:57:54.442Z,62.51
2018-07-22T20:00:21.551Z,62.67
2018-07-22T20:02:49.517Z,63.12
2018-07-22T20:05:16.599Z,63.00
2018-07-22T20:07:44.253Z,63.66
2018-07-22T20:10:11.349Z,62.83
2018-07-22T20:12:39.301Z,62.86
2018-07-22T20:15:06.401Z,63.04
2018-07-22T20:17:33.547Z,63.75
2018-07-22T20:20:00.723Z,63.07
2018-07-22T20:22:27.758Z,63.10
2018-07-22T20:24:55.141Z,63.89
2018-07-22T20:27:22.940Z,63.20
2018-07-22T20:29:49.957Z,62.98
2018-07-22T20:32:18.323Z,63.80
2018-07-22T20:34:45.334Z,63.14
2018-07-22T20:37:13.339Z,63.82
2018-07-22T20:39:40.257Z,63.85
2018-07-22T20:42:07.406Z,63.85
2018-07-22T20:44:34.391Z,64.10
2018-07-22T20:47:01.375Z,63.30
2018-07-22T20:49:28.347Z,63.20
2018-07-22T20:51:55.300Z,63.74
2018-07-22T20:54:22.278Z,63.97
2018-07-22T20:56:49.235Z,63.16
2018-07-22T20:59:16.276Z,63.00
2018-07-22T21:01:44.184Z,63.97
2018-07-22T21:04:10.849Z,63.55
2018-07-22T21:06:37.553Z,63.46
2018-07-22T21:09:05.701Z,63.87
2018-07-22T21:11:40.933Z,64.00
2018-07-22T21:14:07.599Z,64.29
2018-07-22T21:16:34.257Z,63.79
2018-07-22T21:19:00.941Z,63.31
2018-07-22T21:21:27.614Z,63.23
2018-07-22T21:23:54.260Z,64.01
2018-07-22T21:26:21.654Z,63.08
2018-07-22T21:28:49.586Z,64.10
2018-07-22T21:31:16.249Z,63.41
2018-07-22T21:33:44.343Z,63.41
2018-07-22T21:36:11.009Z,63.23
2018-07-22T21:38:37.690Z,63.17
2018-07-22T21:41:04.368Z,63.48
2018-07-22T21:43:31.025Z,64.11
2018-07-22T21:45:57.690Z,63.50
2018-07-22T21:48:24.360Z,63.11
2018-07-22T21:50:51.060Z,64.21
2018-07-22T21:53:18.396Z,63.94
2018-07-22T21:55:45.149Z,64.04
2018-07-22T21:58:12.442Z,63.80
2018-07-22T22:00:42.973Z,63.38
2018-07-22T22:03:09.629Z,63.94
2018-07-22T22:05:36.325Z,63.63
2018-07-22T22:08:02.982Z,63.52
2018-07-22T22:10:29.693Z,64.24
2018-07-22T22:12:56.508Z,64.30
2018-07-22T22:15:24.249Z,63.57
2018-07-22T22:17:51.048Z,63.26
2018-07-22T22:20:18.549Z,63.95
2018-07-22T22:22:45.317Z,63.94
2018-07-22T22:25:13.249Z,63.33
2018-07-22T22:27:39.895Z,63.23
2018-07-22T22:30:07.092Z,63.43
2018-07-22T22:32:33.748Z,64.03
2018-07-22T22:35:00.416Z,63.45
2018-07-22T22:37:27.061Z,64.31
2018-07-22T22:39:53.754Z,63.37
2018-07-22T22:42:20.403Z,64.12
2018-07-22T22:44:48.512Z,63.30
2018-07-22T22:47:15.206Z,63.47
2018-07-22T22:49:42.976Z,63.38
2018-07-22T22:52:09.637Z,63.30
2018-07-22T22:54:40.037Z,63.74
2018-07-22T22:57:06.709Z,64.10
2018-07-22T22:59:33.396Z,64.09
2018-07-22T23:02:00.078Z,64.22
2018-07-22T23:04:27.558Z,64.06
2018-07-22T23:06:54.215Z,63.65
2018-07-22T23:09:20.905Z,64.11
2018-07-22T23:11:48.710Z,64.19
2018-07-22T23:14:15.356Z,64.16
2018-07-22T23:16:43.341Z,63.30
2018-07-22T23:19:10.009Z,63.30
2018-07-22T23:21:36.677Z,64.02
2018-07-22T23:24:03.904Z,64.22
2018-07-22T23:26:31.337Z,63.30
2018-07-22T23:28:57.985Z,63.38
2018-07-22T23:31:24.648Z,64.18
2018-07-22T23:33:51.304Z,63.46
2018-07-22T23:36:19.977Z,63.53
2018-07-22T23:38:46.648Z,63.35
2018-07-22T23:41:14.469Z,63.92
2018-07-22T23:43:41.111Z,64.31
2018-07-22T23:46:07.809Z,63.83
2018-07-22T23:48:34.457Z,64.09
2018-07-22T23:51:01.124Z,64.18
2018-07-22T23:53:28.705Z,63.67
2018-07-22T23:55:55.464Z,64.13
2018-07-22T23:58:22.125Z,64.07
